Time;durP1;ratioP1;P1;durP2;ratioP2;P2;SDS_P1;SDS_P2;PMS_P1;PMS_P2;Temp;Humidity;BMP_temperature;BMP_pressure;BME280_temperature;BME280_humidity;BME280_pressure;Samples;Min_cycle;Max_cycle;Signal;HPM_P1;HPM_P2
2022/09/12 00:01:25;;;;;;;7.07;6.37;;;;;;;15.14;100.00;101872.09;6178889;23;20152;-71
2022/09/12 00:03:57;;;;;;;6.70;6.10;;;;;;;14.98;100.00;101836.50;6153002;23;20187;-71
2022/09/12 00:06:34;;;;;;;6.33;5.73;;;;;;;14.61;100.00;101769.31;6153359;23;20515;-71
2022/09/12 00:09:03;;;;;;;6.63;6.03;;;;;;;13.73;100.00;101660.34;6178761;23;20372;-71
2022/09/12 00:11:29;;;;;;;7.03;6.40;;;;;;;13.96;100.00;101684.31;6178476;23;20384;-72
2022/09/12 00:13:59;;;;;;;6.50;5.90;;;;;;;14.97;100.00;101853.75;6150963;23;20882;-71
2022/09/12 00:16:28;;;;;;;7.07;6.47;;;;;;;14.48;100.00;101780.84;6178599;23;20145;-71
2022/09/12 00:18:54;;;;;;;7.00;6.40;;;;;;;14.51;100.00;101762.56;6153235;23;20796;-71
2022/09/12 00:21:21;;;;;;;7.20;6.53;;;;;;;14.96;100.00;101850.22;6178505;23;20439;-71
2022/09/12 00:23:46;;;;;;;6.90;6.30;;;;;;;14.87;100.00;101863.06;6178719;23;20175;-71
2022/09/12 00:26:12;;;;;;;6.30;5.70;;;;;;;14.87;100.00;101816.34;6179057;23;20847;-71
2022/09/12 00:28:39;;;;;;;7.90;7.20;;;;;;;14.33;100.00;101747.78;6177950;23;20156;-72
2022/09/12 00:31:07;;;;;;;7.60;7.00;;;;;;;15.04;100.00;101841.06;6180310;23;20176;-71
2022/09/12 00:33:34;;;;;;;7.73;7.00;;;;;;;14.38;100.00;101736.38;6178866;23;20427;-71
2022/09/12 00:36:04;;;;;;;7.10;6.47;;;;;;;14.08;100.00;101700.75;6151465;23;20878;-72
2022/09/12 00:38:29;;;;;;;8.20;7.50;;;;;;;14.77;100.00;101813.16;6152039;23;20368;-71
2022/09/12 00:40:55;;;;;;;7.67;6.97;;;;;;;14.45;100.00;101758.81;6152084;23;20384;-72
2022/09/12 00:43:29;;;;;;;7.50;6.80;;;;;;;14.91;100.00;101831.91;6152118;23;20159;-72
2022/09/12 00:46:05;;;;;;;7.63;6.87;;;;;;;14.86;100.00;101838.94;6179876;23;20180;-71
2022/09/12 00:48:36;;;;;;;7.67;6.93;;;;;;;14.11;100.00;101705.75;6180110;23;20428;-72
2022/09/12 00:51:02;;;;;;;8.87;7.40;;;;;;;14.09;100.00;101732.06;6179731;23;20364;-71
2022/09/12 00:53:27;;;;;;;8.87;8.07;;;;;;;14.11;100.00;101700.34;6178997;23;20412;-71
2022/09/12 00:55:54;;;;;;;8.03;7.27;;;;;;;14.69;100.00;101804.22;6152070;23;20431;-71
2022/09/12 00:58:35;;;;;;;8.70;7.90;;;;;;;14.02;100.00;101707.78;6178776;23;20152;-71
2022/09/12 01:01:02;;;;;;;8.50;7.77;;;;;;;14.13;100.00;101712.59;6177439;23;20368;-71
2022/09/12 01:03:27;;;;;;;;;;;;;;;14.56;100.00;101823.06;6154369;23;20713;-71
2022/09/12 01:06:07;;;;;;;8.20;7.50;;;;;;;14.76;100.00;101820.44;6155260;23;20397;-71
2022/09/12 01:08:36;;;;;;;8.57;7.80;;;;;;;14.79;100.00;101813.81;6153615;23;20162;-71
2022/09/12 01:11:02;;;;;;;8.23;7.53;;;;;;;13.61;100.00;101608.03;6155085;23;20391;-71
2022/09/12 01:13:28;;;;;;;8.70;7.90;;;;;;;13.83;100.00;101671.59;6152171;23;20466;-71
2022/09/12 01:15:54;;;;;;;8.93;8.07;;;;;;;13.97;100.00;101704.84;6153437;23;20461;-71
2022/09/12 01:18:37;;;;;;;8.23;7.53;;;;;;;13.71;100.00;101638.13;6179701;23;20148;-71
2022/09/12 01:21:08;;;;;;;9.00;8.10;;;;;;;14.71;100.00;101803.19;6154015;23;20764;-73
2022/09/12 01:23:40;;;;;;;8.13;7.43;;;;;;;14.67;100.00;101808.16;6153144;23;20395;-71
2022/09/12 01:26:43;;;;;;;8.93;8.13;;;;;;;14.68;100.00;101807.94;6154484;23;20830;-71
2022/09/12 01:29:59;;;;;;;8.93;8.03;;;;;;;14.60;100.00;101802.72;6179633;23;20364;-70
2022/09/12 01:32:59;;;;;;;8.93;8.03;;;;;;;14.62;100.00;101803.34;6112685;23;20426;-73
2022/09/12 01:35:30;;;;;;;;;;;;;;;14.62;100.00;101810.63;6155976;23;20424;-73
2022/09/12 01:38:22;;;;;;;;;;;;;;;14.63;100.00;101802.31;6155665;23;19908;-72
2022/09/12 01:41:06;;;;;;;;;;;;;;;14.64;100.00;101798.59;6178557;23;19955;-73
2022/09/12 01:43:37;;;;;;;;;;;;;;;14.50;100.00;101796.03;6179430;23;19908;-73
2022/09/12 01:46:11;;;;;;;;;;;;;;;14.68;100.00;101802.53;6179659;23;19904;-73
2022/09/12 01:49:00;;;;;;;;;;;;;;;14.68;100.00;101801.72;6180764;23;20034;-71
2022/09/12 01:51:30;;;;;;;;;;;;;;;14.48;100.00;101794.34;6166209;23;19908;-71
2022/09/12 01:54:02;;;;;;;;;;;;;;;14.65;100.00;101791.31;6153171;23;19908;-71
2022/09/12 01:56:30;;;;;;;;;;;;;;;14.64;100.00;101790.50;6153898;23;20409;-71
2022/09/12 01:58:55;;;;;;;;;;;;;;;14.54;100.00;101784.63;6177890;23;19950;-71
2022/09/12 02:01:26;;;;;;;;;;;;;;;14.62;100.00;101779.06;6179882;23;20291;-71
2022/09/12 02:04:07;;;;;;;9.20;8.40;;;;;;;13.97;100.00;101708.41;6152810;23;19908;-71
2022/09/12 02:07:05;;;;;;;8.90;8.10;;;;;;;14.43;100.00;101775.19;6151189;23;20380;-71
2022/09/12 02:09:35;;;;;;;;;;;;;;;14.49;100.00;101781.66;6179806;23;19912;-72
2022/09/12 02:12:02;;;;;;;;;;;;;;;14.57;100.00;101780.69;6179049;23;19932;-72
2022/09/12 02:14:30;;;;;;;;;;;;;;;14.56;100.00;101785.25;6177503;23;19909;-73
2022/09/12 02:17:01;;;;;;;;;;;;;;;14.59;100.00;101774.06;6152755;23;19916;-73
2022/09/12 02:19:33;;;;;;;;;;;;;;;14.39;100.00;101776.66;6153447;23;19917;-72
2022/09/12 02:22:00;;;;;;;;;;;;;;;14.49;100.00;101768.16;6152748;23;19919;-72
2022/09/12 02:24:38;;;;;;;;;;;;;;;14.34;100.00;101773.72;6153007;23;19913;-72
2022/09/12 02:27:23;;;;;;;;;;;;;;;14.53;100.00;101772.16;6152800;23;20250;-72
2022/09/12 02:29:49;;;;;;;;;;;;;;;14.42;100.00;101767.31;6178293;23;20234;-72
2022/09/12 02:32:34;;;;;;;;;;;;;;;14.37;100.00;101770.59;6178632;23;20276;-72
2022/09/12 02:35:09;;;;;;;9.47;8.57;;;;;;;14.31;100.00;101768.72;6152415;23;19912;-72
2022/09/12 02:37:41;;;;;;;9.00;8.17;;;;;;;14.39;100.00;101768.56;6178666;23;20902;-72
2022/09/12 02:40:08;;;;;;;9.53;8.63;;;;;;;13.81;100.00;101668.28;6178495;23;20380;-72
2022/09/12 02:42:35;;;;;;;9.97;9.17;;;;;;;13.61;100.00;101649.28;6178506;23;20380;-72
2022/09/12 02:45:00;;;;;;;10.80;9.70;;;;;;;13.64;100.00;101664.25;6152602;23;20502;-72
2022/09/12 02:47:33;;;;;;;9.80;8.87;;;;;;;14.13;100.00;101709.09;6178227;23;20412;-72
2022/09/12 02:49:59;;;;;;;9.77;8.87;;;;;;;13.67;100.00;101629.63;6178507;23;20239;-72
2022/09/12 02:52:26;;;;;;;10.37;9.37;;;;;;;13.33;100.00;101607.03;6152142;23;20424;-71
2022/09/12 02:54:52;;;;;;;9.43;8.60;;;;;;;14.28;100.00;101749.41;6177413;23;20438;-72
2022/09/12 02:57:20;;;;;;;10.87;9.77;;;;;;;14.33;100.00;101744.25;6177808;23;20387;-71
2022/09/12 02:59:47;;;;;;;9.60;8.70;;;;;;;13.44;100.00;101615.59;6151561;23;20414;-71
2022/09/12 03:02:48;;;;;;;10.40;9.40;;;;;;;14.31;100.00;101738.22;6177542;23;20391;-71
2022/09/12 03:05:33;;;;;;;10.60;9.27;;;;;;;14.30;100.00;101752.75;6177292;23;20882;-72
2022/09/12 03:08:26;;;;;;;10.53;9.50;;;;;;;14.31;100.00;101736.34;6151858;23;20388;-71
2022/09/12 03:11:14;;;;;;;8.90;8.10;;;;;;;14.38;100.00;101733.69;6178347;23;20886;-72
2022/09/12 03:13:56;;;;;;;10.20;9.30;;;;;;;13.62;100.00;101642.84;6152543;23;20498;-71
2022/09/12 03:16:41;;;;;;;10.53;9.63;;;;;;;13.84;100.00;101635.50;6177428;23;20364;-71
2022/09/12 03:19:09;;;;;;;10.00;9.10;;;;;;;14.29;100.00;101734.88;6178037;23;20414;-71
2022/09/12 03:21:55;;;;;;;10.67;9.67;;;;;;;14.12;100.00;101726.31;6176867;23;20390;-71
2022/09/12 03:24:39;;;;;;;10.43;9.37;;;;;;;13.54;100.00;101603.44;6177493;23;20392;-73
2022/09/12 03:27:27;;;;;;;10.03;9.13;;;;;;;14.47;100.00;101722.50;6151374;23;20431;-72
2022/09/12 03:29:55;;;;;;;10.00;9.03;;;;;;;13.62;100.00;101615.91;6178809;23;20365;-72
2022/09/12 03:32:39;;;;;;;10.87;9.77;;;;;;;13.40;100.00;101606.28;6178310;23;20474;-72
2022/09/12 03:35:05;;;;;;;9.67;8.60;;;;;;;13.50;100.00;101623.72;6177476;23;20530;-72
2022/09/12 03:37:30;;;;;;;10.00;9.10;;;;;;;14.13;100.00;101669.44;6177774;23;20411;-73
2022/09/12 03:39:56;;;;;;;10.93;9.93;;;;;;;14.43;100.00;101725.78;6176011;23;20632;-73
2022/09/12 03:42:21;;;;;;;10.80;9.77;;;;;;;13.96;100.00;101643.84;6178271;23;20159;-71
2022/09/12 03:44:46;;;;;;;12.13;9.70;;;;;;;13.94;100.00;101662.94;6152040;23;20187;-72
2022/09/12 03:47:12;;;;;;;9.67;8.77;;;;;;;13.90;100.00;101669.75;6179314;23;20314;-73
2022/09/12 03:49:37;;;;;;;9.77;8.87;;;;;;;14.37;100.00;101713.09;6151977;23;20255;-73
2022/09/12 03:52:03;;;;;;;10.20;9.27;;;;;;;13.39;100.00;101586.53;6178737;23;20159;-72
2022/09/12 03:54:28;;;;;;;9.47;8.57;;;;;;;13.77;100.00;101640.06;6175904;23;20184;-72
2022/09/12 03:56:53;;;;;;;10.97;9.87;;;;;;;13.61;100.00;101632.28;6150682;23;20171;-72
2022/09/12 03:59:19;;;;;;;10.20;9.20;;;;;;;13.86;100.00;101671.19;6176329;23;20156;-72
2022/09/12 04:01:44;;;;;;;8.60;7.80;;;;;;;13.78;100.00;101634.44;6151774;23;20156;-72
2022/09/12 04:04:10;;;;;;;10.93;9.83;;;;;;;13.85;100.00;101668.69;6176995;23;20176;-72
2022/09/12 04:06:35;;;;;;;11.00;10.00;;;;;;;14.18;100.00;101706.63;6177204;23;20153;-72
2022/09/12 04:09:01;;;;;;;10.23;9.13;;;;;;;13.05;100.00;101503.88;6177650;23;20716;-72
2022/09/12 04:11:26;;;;;;;10.90;9.90;;;;;;;13.95;100.00;101653.00;6179527;23;20622;-73
2022/09/12 04:13:51;;;;;;;10.63;9.73;;;;;;;13.82;100.00;101636.75;6176236;23;20253;-72
2022/09/12 04:16:17;;;;;;;9.70;8.80;;;;;;;14.08;100.00;101660.28;6178482;23;20171;-72
2022/09/12 04:18:44;;;;;;;10.43;9.43;;;;;;;13.49;100.00;101572.72;6179079;23;20159;-72
2022/09/12 04:21:13;;;;;;;10.60;9.50;;;;;;;14.31;100.00;101709.34;6151354;23;20160;-72
2022/09/12 04:23:39;;;;;;;10.83;9.83;;;;;;;14.29;100.00;101714.13;6151520;23;20416;-72
2022/09/12 04:26:05;;;;;;;10.23;9.33;;;;;;;14.46;100.00;101706.47;6178584;23;20398;-73
2022/09/12 04:28:31;;;;;;;11.00;10.00;;;;;;;13.26;100.00;101587.31;6153744;23;20259;-72
2022/09/12 04:31:02;;;;;;;10.67;9.57;;;;;;;14.35;100.00;101715.16;6151921;23;20411;-72
2022/09/12 04:33:27;;;;;;;10.80;9.77;;;;;;;14.16;100.00;101689.78;6178018;23;20407;-73
2022/09/12 04:35:53;;;;;;;11.70;10.50;;;;;;;14.31;100.00;101716.63;6179146;23;20403;-72
2022/09/12 04:38:18;;;;;;;10.30;9.40;;;;;;;13.85;100.00;101631.78;6178634;23;20466;-72
2022/09/12 04:40:44;;;;;;;10.20;9.30;;;;;;;13.56;100.00;101584.34;6178308;23;20156;-72
2022/09/12 04:43:09;;;;;;;11.40;10.30;;;;;;;13.83;100.00;101635.69;6178898;23;20576;-72
2022/09/12 04:45:34;;;;;;;11.60;10.60;;;;;;;12.93;100.00;101494.69;6178120;23;20176;-71
2022/09/12 04:48:00;;;;;;;11.60;10.50;;;;;;;14.28;100.00;101679.25;6177957;23;20180;-72
2022/09/12 04:50:25;;;;;;;10.07;9.17;;;;;;;14.21;100.00;101695.41;6180783;23;20180;-72
2022/09/12 04:52:52;;;;;;;11.60;10.40;;;;;;;14.23;100.00;101682.53;6179489;23;20144;-72
2022/09/12 04:55:18;;;;;;;11.80;10.80;;;;;;;13.59;100.00;101610.09;6153236;23;20192;-72
2022/09/12 04:57:44;;;;;;;11.77;10.67;;;;;;;14.03;100.00;101682.50;6179085;23;20434;-72
2022/09/12 05:00:13;;;;;;;10.97;9.90;;;;;;;14.10;100.00;101688.72;6178149;23;20384;-72
2022/09/12 05:02:40;;;;;;;11.47;10.37;;;;;;;13.25;100.00;101604.53;6150857;23;20287;-72
2022/09/12 05:05:05;;;;;;;12.20;11.00;;;;;;;14.04;100.00;101681.44;6152794;23;20404;-71
2022/09/12 05:07:31;;;;;;;11.63;10.53;;;;;;;14.18;100.00;101696.66;6178363;23;21390;-71
2022/09/12 05:09:57;;;;;;;11.30;10.20;;;;;;;13.49;100.00;101592.41;6150890;23;20175;-71
2022/09/12 05:12:22;;;;;;;13.43;12.23;;;;;;;14.17;100.00;101686.88;6152055;23;20509;-71
2022/09/12 05:14:48;;;;;;;13.00;10.87;;;;;;;14.13;100.00;101671.31;6178810;23;20176;-72
2022/09/12 05:17:13;;;;;;;11.90;10.70;;;;;;;13.38;100.00;101578.69;6177851;23;20235;-71
2022/09/12 05:19:39;;;;;;;12.07;10.97;;;;;;;14.14;100.00;101684.59;6152401;23;20192;-71
2022/09/12 05:22:05;;;;;;;11.27;10.10;;;;;;;14.27;100.00;101689.22;6177582;23;20153;-71
2022/09/12 05:24:31;;;;;;;11.93;10.83;;;;;;;13.28;100.00;101561.03;6152616;23;20172;-71
2022/09/12 05:26:57;;;;;;;11.90;10.80;;;;;;;13.68;100.00;101660.09;6152560;23;20403;-71
2022/09/12 05:29:24;;;;;;;11.60;10.47;;;;;;;14.11;100.00;101681.47;6178417;23;20459;-71
2022/09/12 05:31:50;;;;;;;11.50;10.33;;;;;;;14.02;100.00;101692.41;6179424;23;20156;-71
2022/09/12 05:34:16;;;;;;;10.50;9.50;;;;;;;14.15;100.00;101712.41;6153840;23;20435;-71
2022/09/12 05:36:42;;;;;;;12.53;9.97;;;;;;;13.61;100.00;101619.63;6152836;23;20876;-71
2022/09/12 05:39:07;;;;;;;11.40;10.30;;;;;;;13.62;100.00;101612.38;6179385;23;20160;-71
2022/09/12 05:41:34;;;;;;;11.33;10.30;;;;;;;13.85;100.00;101652.50;6153962;23;20659;-71
2022/09/12 05:44:02;;;;;;;12.83;11.63;;;;;;;14.36;100.00;101722.25;6153535;23;20591;-71
2022/09/12 05:46:38;;;;;;;13.17;11.40;;;;;;;13.56;100.00;101565.50;6179162;23;20376;-71
2022/09/12 05:49:06;;;;;;;13.77;12.47;;;;;;;13.55;100.00;101550.34;6154508;23;20470;-72
2022/09/12 05:51:34;;;;;;;12.40;11.10;;;;;;;13.86;100.00;101603.78;6181850;23;20372;-72
2022/09/12 05:54:05;;;;;;;12.37;11.17;;;;;;;13.77;100.00;101556.47;6180463;23;20415;-72
2022/09/12 05:56:33;;;;;;;11.70;10.50;;;;;;;14.10;100.00;101629.38;6154671;23;20460;-72
2022/09/12 05:59:04;;;;;;;12.73;11.43;;;;;;;14.91;100.00;101718.47;6155923;23;20438;-72
2022/09/12 06:01:32;;;;;;;12.27;11.07;;;;;;;14.67;100.00;101719.06;6182280;23;20380;-72
2022/09/12 06:03:59;;;;;;;10.80;9.80;;;;;;;13.76;100.00;101558.31;6155329;23;20737;-73
2022/09/12 06:06:26;;;;;;;13.70;12.30;;;;;;;13.95;100.00;101580.16;6180448;23;20408;-72
2022/09/12 06:08:55;;;;;;;12.30;11.20;;;;;;;14.90;100.00;101710.56;6155876;23;20383;-71
2022/09/12 06:11:22;;;;;;;13.40;12.10;;;;;;;13.64;100.00;101518.66;6181002;23;20403;-72
2022/09/12 06:13:49;;;;;;;13.83;12.43;;;;;;;14.72;100.00;101697.66;6153960;23;20420;-71
2022/09/12 06:16:18;;;;;;;12.77;11.47;;;;;;;14.98;100.00;101717.63;6181969;23;20726;-72
2022/09/12 06:18:48;;;;;;;12.47;11.27;;;;;;;15.05;100.00;101708.50;6181767;23;20447;-72
2022/09/12 06:21:14;;;;;;;15.37;12.33;;;;;;;14.19;100.00;101585.00;6180599;23;20404;-72
2022/09/12 06:23:40;;;;;;;12.93;11.67;;;;;;;15.03;100.00;101698.94;6152025;23;20388;-72
2022/09/12 06:26:08;;;;;;;13.53;12.13;;;;;;;15.08;100.00;101713.50;6180891;23;20921;-72
2022/09/12 06:28:35;;;;;;;14.17;12.70;;;;;;;14.98;100.00;101659.03;6181081;23;20383;-71
2022/09/12 06:31:06;;;;;;;14.27;12.80;;;;;;;15.23;100.00;101701.63;6180226;23;20498;-71
2022/09/12 06:33:33;;;;;;;13.77;12.37;;;;;;;15.14;100.00;101691.03;6180311;23;20420;-72
2022/09/12 06:36:11;;;;;;;16.03;14.33;;;;;;;15.22;100.00;101697.28;6154709;23;20523;-72
2022/09/12 06:38:37;;;;;;;15.07;13.07;;;;;;;15.37;100.00;101709.53;6181038;23;20380;-72
2022/09/12 06:41:12;;;;;;;14.63;12.60;;;;;;;15.56;100.00;101702.44;6180829;23;20387;-71
2022/09/12 06:43:39;;;;;;;15.43;13.83;;;;;;;15.62;100.00;101702.63;6180994;23;20720;-72
2022/09/12 06:46:05;;;;;;;14.33;12.90;;;;;;;15.13;100.00;101629.94;6155117;23;20411;-72
2022/09/12 06:48:31;;;;;;;14.87;13.27;;;;;;;15.51;100.00;101696.84;6180207;23;20869;-72
2022/09/12 06:50:57;;;;;;;15.20;12.90;;;;;;;15.59;100.00;101696.63;6180497;23;20180;-72
2022/09/12 06:53:24;;;;;;;16.90;14.63;;;;;;;15.36;100.00;101661.06;6179724;23;20156;-72
2022/09/12 06:56:02;;;;;;;16.40;14.70;;;;;;;15.22;100.00;101635.13;6178465;23;20412;-72
2022/09/12 06:58:28;;;;;;;17.27;15.67;;;;;;;15.31;100.00;101690.63;6154000;23;20486;-72
2022/09/12 07:01:04;;;;;;;17.53;15.27;;;;;;;15.64;100.00;101716.78;6181817;23;20443;-72
2022/09/12 07:03:31;;;;;;;17.03;15.23;;;;;;;15.60;100.00;101709.09;6179916;23;20371;-72
2022/09/12 07:05:56;;;;;;;18.57;16.60;;;;;;;15.74;100.00;101709.09;6175882;23;20458;-72
2022/09/12 07:08:22;;;;;;;17.07;14.90;;;;;;;14.71;100.00;101597.97;6181423;23;20384;-72
2022/09/12 07:10:47;;;;;;;18.10;16.20;;;;;;;14.93;100.00;101602.13;6181070;23;20571;-72
2022/09/12 07:13:13;;;;;;;17.23;15.43;;;;;;;15.45;100.00;101669.78;6151387;23;20550;-72
2022/09/12 07:15:39;;;;;;;16.90;15.10;;;;;;;14.97;100.00;101568.22;6178283;23;20180;-72
2022/09/12 07:18:04;;;;;;;17.50;15.30;;;;;;;15.92;100.00;101709.25;6181811;23;20159;-72
2022/09/12 07:20:31;;;;;;;17.50;15.70;;;;;;;14.59;100.00;101504.09;6153697;23;20454;-72
2022/09/12 07:22:58;;;;;;;15.63;14.03;;;;;;;15.14;100.00;101603.75;6154529;23;20160;-72
2022/09/12 07:25:23;;;;;;;15.43;13.83;;;;;;;15.93;100.00;101704.66;6177814;23;20417;-73
2022/09/12 07:27:48;;;;;;;17.60;15.90;;;;;;;15.63;100.00;101658.34;6178831;23;20769;-73
2022/09/12 07:30:15;;;;;;;17.50;14.23;;;;;;;15.29;100.00;101574.59;6178651;23;20297;-73
2022/09/12 07:32:40;;;;;;;17.20;14.93;;;;;;;16.19;100.00;101706.44;6152979;23;20530;-73
2022/09/12 07:35:06;;;;;;;19.77;16.87;;;;;;;15.47;100.00;101617.16;6153235;23;20486;-73
2022/09/12 07:37:31;;;;;;;20.47;16.33;;;;;;;16.25;100.00;101711.81;6178600;23;20180;-73
2022/09/12 07:39:57;;;;;;;20.27;13.73;;;;;;;16.16;100.00;101683.34;6150095;23;20168;-74
2022/09/12 07:42:22;;;;;;;21.30;16.73;;;;;;;15.09;100.00;101507.09;6179186;23;20231;-73
2022/09/12 07:44:49;;;;;;;21.33;17.33;;;;;;;15.55;100.00;101583.66;6150420;23;20168;-73
2022/09/12 07:47:14;;;;;;;20.63;15.40;;;;;;;15.54;100.00;101572.03;6153037;23;20759;-73
2022/09/12 07:49:39;;;;;;;20.13;16.47;;;;;;;15.76;100.00;101590.69;6176698;23;20379;-73
2022/09/12 07:52:05;;;;;;;18.33;16.43;;;;;;;16.11;100.00;101649.84;6174935;23;20156;-72
2022/09/12 07:54:32;;;;;;;28.07;18.70;;;;;;;16.46;100.00;101699.00;6177182;23;20208;-71
2022/09/12 07:56:58;;;;;;;20.63;17.23;;;;;;;16.50;100.00;101700.25;6155738;23;20161;-71
2022/09/12 07:59:23;;;;;;;23.73;17.67;;;;;;;16.23;100.00;101635.41;6152571;23;20458;-71
2022/09/12 08:01:49;;;;;;;19.53;16.83;;;;;;;16.08;100.00;101607.78;6151667;23;20391;-71
2022/09/12 08:04:14;;;;;;;20.47;17.30;;;;;;;16.68;100.00;101691.38;6177402;23;20226;-71
2022/09/12 08:06:40;;;;;;;29.13;18.50;;;;;;;16.73;100.00;101700.50;6152589;23;20157;-72
2022/09/12 08:09:06;;;;;;;26.67;18.73;;;;;;;16.79;100.00;101690.72;6177111;23;20152;-71
2022/09/12 08:11:32;;;;;;;22.90;19.30;;;;;;;16.39;100.00;101631.34;6151795;23;20230;-72
2022/09/12 08:13:58;;;;;;;23.57;20.23;;;;;;;16.65;100.00;101692.63;6177235;23;20949;-74
2022/09/12 08:16:27;;;;;;;24.37;20.27;;;;;;;16.68;100.00;101686.78;6154729;23;20160;-74
2022/09/12 08:18:53;;;;;;;22.50;19.77;;;;;;;16.79;100.00;101692.59;6152723;23;20384;-73
2022/09/12 08:21:26;;;;;;;30.63;24.13;;;;;;;15.52;100.00;101511.09;6178433;23;20455;-73
2022/09/12 08:23:59;;;;;;;27.47;23.07;;;;;;;15.96;100.00;101580.59;6152154;23;20518;-73
2022/09/12 08:26:25;;;;;;;32.20;27.67;;;;;;;16.73;100.00;101694.28;6154029;23;20847;-74
2022/09/12 08:28:52;;;;;;;29.97;25.43;;;;;;;16.49;100.00;101658.81;6154401;23;20398;-73
2022/09/12 08:31:20;;;;;;;32.13;25.10;;;;;;;15.92;100.00;101571.25;6154538;23;20391;-74
2022/09/12 08:33:45;;;;;;;30.60;23.80;;;;;;;16.82;100.00;101692.16;6179057;23;20690;-73
2022/09/12 08:36:17;;;;;;;27.77;21.90;;;;;;;16.85;100.00;101681.69;6179945;23;20404;-74
2022/09/12 08:38:45;;;;;;;30.13;24.70;;;;;;;16.91;100.00;101686.25;6179298;23;20179;-74
2022/09/12 08:41:22;;;;;;;31.10;25.90;;;;;;;16.99;100.00;101692.44;6152922;23;20881;-74
2022/09/12 08:44:12;;;;;;;28.53;23.27;;;;;;;16.15;100.00;101557.19;6177778;23;20907;-72
2022/09/12 08:46:55;;;;;;;30.43;22.00;;;;;;;16.36;100.00;101580.34;6152427;23;20957;-74
2022/09/12 08:49:44;;;;;;;23.80;20.07;;;;;;;16.53;100.00;101582.53;6179189;23;20364;-73
2022/09/12 08:52:45;;;;;;;21.27;18.70;;;;;;;17.13;100.00;101662.28;6152672;23;20388;-73
2022/09/12 08:55:23;;;;;;;23.30;18.60;;;;;;;17.27;100.00;101679.28;6139845;23;20467;-73
2022/09/12 08:57:50;;;;;;;22.33;18.53;;;;;;;16.73;100.00;101580.50;6152795;23;20396;-73
2022/09/12 09:00:18;;;;;;;22.53;18.10;;;;;;;17.40;100.00;101673.72;6153976;23;20391;-73
2022/09/12 09:03:08;;;;;;;21.70;16.97;;;;;;;16.99;100.00;101584.88;6152468;23;20518;-73
2022/09/12 09:05:50;;;;;;;23.73;19.10;;;;;;;17.44;100.00;101679.50;6180391;23;20395;-73
2022/09/12 09:09:00;;;;;;;22.30;19.07;;;;;;;17.40;100.00;101681.84;6179319;23;20387;-74
2022/09/12 09:11:41;;;;;;;24.83;19.73;;;;;;;17.45;100.00;101675.75;6148896;23;20402;-71
2022/09/12 09:14:46;;;;;;;19.73;17.27;;;;;;;17.51;100.00;101669.44;6151649;23;20435;-71
2022/09/12 09:17:19;;;;;;;20.47;16.87;;;;;;;17.63;100.00;101667.63;6179326;23;20382;-74
2022/09/12 09:19:50;;;;;;;19.87;15.80;;;;;;;17.20;100.00;101591.75;6153071;23;20457;-74
2022/09/12 09:22:44;;;;;;;20.17;15.43;;;;;;;17.62;100.00;101632.59;6148403;23;20380;-73
2022/09/12 09:25:17;;;;;;;24.60;16.37;;;;;;;17.80;100.00;101643.47;6166030;23;20486;-74
2022/09/12 09:27:57;;;;;;;24.10;16.80;;;;;;;17.24;100.00;101559.59;6181887;23;20364;-74
2022/09/12 09:30:23;;;;;;;22.33;17.60;;;;;;;17.68;100.00;101631.69;6151281;23;20392;-74
2022/09/12 09:32:53;;;;;;;22.87;18.77;;;;;;;17.87;100.00;101639.84;6151145;23;20442;-71
2022/09/12 09:35:37;;;;;;;22.50;16.47;;;;;;;17.87;100.00;101634.41;6180370;23;20176;-71
2022/09/12 09:38:24;;;;;;;23.83;17.87;;;;;;;17.88;100.00;101630.63;6154782;23;20387;-72
2022/09/12 09:41:01;;;;;;;26.63;15.83;;;;;;;17.83;100.00;101636.75;6154980;23;20834;-71
2022/09/12 09:43:27;;;;;;;26.93;16.93;;;;;;;17.92;100.00;101627.25;6181711;23;20910;-71
2022/09/12 09:45:55;;;;;;;19.80;16.27;;;;;;;17.67;100.00;101604.78;6181966;23;20400;-73
2022/09/12 09:48:34;;;;;;;23.63;17.77;;;;;;;17.80;100.00;101627.19;6181224;23;20371;-74
2022/09/12 09:51:03;;;;;;;22.03;15.37;;;;;;;17.84;100.00;101616.69;6181491;23;20869;-74
2022/09/12 09:53:40;;;;;;;19.17;13.77;;;;;;;17.95;100.00;101637.66;6154730;23;20391;-74
2022/09/12 09:56:33;;;;;;;20.70;15.93;;;;;;;17.20;100.00;101515.84;6155220;23;20431;-71
2022/09/12 09:59:15;;;;;;;21.00;15.33;;;;;;;17.94;100.00;101602.59;6177658;23;20546;-73
2022/09/12 10:01:53;;;;;;;17.87;14.70;;;;;;;15.91;100.00;101285.56;6180042;23;20376;-73
2022/09/12 10:04:40;;;;;;;22.20;15.70;;;;;;;17.17;100.00;101489.19;6181884;23;20356;-72
2022/09/12 10:07:16;;;;;;;20.97;16.33;;;;;;;17.33;100.00;101502.13;6180293;23;20463;-72
2022/09/12 10:10:01;;;;;;;18.73;14.93;;;;;;;17.59;100.00;101536.22;6181308;23;20410;-72
2022/09/12 10:12:27;;;;;;;24.50;15.00;;;;;;;17.37;100.00;101487.06;6154043;23;20720;-73
2022/09/12 10:15:19;;;;;;;18.50;14.80;;;;;;;18.04;100.00;101581.97;6180991;23;20420;-72
2022/09/12 10:17:47;;;;;;;22.13;16.17;;;;;;;18.09;100.00;101581.31;6181563;23;20137;-72
2022/09/12 10:20:36;;;;;;;20.93;16.60;;;;;;;17.90;100.00;101550.66;6181348;23;20846;-73
2022/09/12 10:23:24;;;;;;;17.77;13.43;;;;;;;17.81;100.00;101523.00;6179512;23;20361;-73
2022/09/12 10:25:56;;;;;;;16.90;14.10;;;;;;;18.41;100.00;101592.72;6181277;23;20708;-73
2022/09/12 10:28:33;;;;;;;17.53;13.00;;;;;;;18.38;100.00;101598.63;6178584;23;20402;-72
2022/09/12 10:31:01;;;;;;;19.30;13.23;;;;;;;18.09;100.00;101539.75;6175969;23;20364;-72
2022/09/12 10:33:28;;;;;;;16.37;12.70;;;;;;;18.60;100.00;101600.78;6178207;23;20372;-72
2022/09/12 10:35:54;;;;;;;16.87;14.27;;;;;;;18.64;100.00;101593.84;6177564;23;20379;-72
2022/09/12 10:38:30;;;;;;;16.17;11.77;;;;;;;18.17;100.00;101513.09;6150059;23;20412;-72
2022/09/12 10:41:03;;;;;;;15.40;13.20;;;;;;;18.80;100.00;101573.31;6177776;23;20363;-72
2022/09/12 10:43:33;;;;;;;13.80;11.70;;;;;;;18.89;100.00;101580.03;6179340;23;20446;-72
2022/09/12 10:46:18;;;;;;;15.50;11.70;;;;;;;18.95;100.00;101576.41;6178986;23;20864;-72
2022/09/12 10:48:48;;;;;;;14.43;10.37;;;;;;;19.09;100.00;101575.09;6178628;23;20404;-73
2022/09/12 10:51:22;;;;;;;13.77;12.20;;;;;;;18.91;100.00;101567.88;6180193;23;20491;-72
2022/09/12 10:53:48;;;;;;;14.50;11.93;;;;;;;18.89;100.00;101537.41;6177403;23;20767;-72
2022/09/12 10:56:19;;;;;;;13.90;11.13;;;;;;;19.36;100.00;101558.28;6179357;23;20388;-72
2022/09/12 10:59:06;;;;;;;12.20;10.23;;;;;;;19.35;100.00;101546.56;6180136;23;20184;-72
2022/09/12 11:01:32;;;;;;;9.67;7.40;;;;;;;19.35;100.00;101541.13;6180330;23;20457;-72
2022/09/12 11:04:09;;;;;;;13.10;7.90;;;;;;;19.02;100.00;101500.16;6153831;23;20388;-72
2022/09/12 11:07:12;;;;;;;8.60;7.43;;;;;;;19.25;100.00;101537.34;6179936;23;20443;-73
2022/09/12 11:10:01;;;;;;;13.23;9.20;;;;;;;18.61;100.00;101444.88;6174067;23;20388;-74
2022/09/12 11:12:58;;;;;;;10.93;8.00;;;;;;;18.98;100.00;101488.94;6150316;23;20384;-73
2022/09/12 11:16:04;;;;;;;10.70;8.80;;;;;;;19.24;100.00;101503.06;6130496;23;20447;-72
2022/09/12 11:18:39;;;;;;;9.67;7.70;;;;;;;19.39;100.00;101531.41;6178479;23;20408;-74
2022/09/12 11:21:19;;;;;;;12.27;9.37;;;;;;;19.53;100.00;101531.97;6174413;23;21054;-73
2022/09/12 11:24:10;;;;;;;15.40;11.77;;;;;;;19.52;100.00;101524.03;6147889;23;20391;-73
2022/09/12 11:27:24;;;;;;;18.77;14.40;;;;;;;19.58;100.00;101517.63;6178959;23;20398;-73
2022/09/12 11:30:11;;;;;;;17.80;14.20;;;;;;;19.56;100.00;101514.34;6170508;23;20415;-73
2022/09/12 11:32:46;;;;;;;21.73;17.00;;;;;;;19.73;100.00;101517.09;6178062;23;20372;-73
2022/09/12 11:35:14;;;;;;;24.60;17.47;;;;;;;19.72;100.00;101507.31;6180519;23;20465;-74